Time;durP1;ratioP1;P1;durP2;ratioP2;P2;SDS_P1;SDS_P2;PMS_P1;PMS_P2;Temp;Humidity;BMP_temperature;BMP_pressure;BME280_temperature;BME280_humidity;BME280_pressure;Samples;Min_cycle;Max_cycle;Signal;HPM_P1;HPM_P2
2023/01/23 00:02:52;;;;;;;;;;;;;;;-0.38;100.00;103204.78;10503330;28;20538;-75
2023/01/23 00:07:53;;;;;;;;;;;;;;;-0.36;100.00;103198.19;10498129;28;19916;-75
2023/01/23 00:12:53;;;;;;;;;;;;;;;-0.34;100.00;103213.09;10510772;28;19969;-76
2023/01/23 00:17:53;;;;;;;;;;;;;;;-0.33;100.00;103216.59;10520471;28;19970;-75
2023/01/23 00:22:54;;;;;;;;;;;;;;;-0.32;100.00;103226.19;10513977;28;19920;-76
2023/01/23 00:27:54;;;;;;;;;;;;;;;-0.34;100.00;103220.81;10489566;28;19920;-75
2023/01/23 00:32:54;;;;;;;;;;;;;;;-0.35;100.00;103223.22;10494637;28;19921;-76
2023/01/23 00:37:55;;;;;;;;;;;;;;;-0.40;100.00;103230.31;10489827;28;19981;-76
2023/01/23 00:42:55;;;;;;;;;;;;;;;-0.37;100.00;103227.22;10491021;28;19930;-75
2023/01/23 00:47:55;;;;;;;;;;;;;;;-0.32;100.00;103221.03;10522577;28;20014;-76
2023/01/23 00:52:56;;;;;;;;;;;;;;;-0.27;100.00;103231.91;10512848;28;19920;-75
2023/01/23 00:57:56;;;;;;;;;;;;;;;-0.21;100.00;103227.53;10488603;28;19927;-75
2023/01/23 01:02:56;;;;;;;;;;;;;;;-0.20;100.00;103232.91;10512540;28;19920;-76
2023/01/23 01:07:57;;;;;;;;;;;;;;;-0.21;100.00;103243.00;10481300;28;19920;-76
2023/01/23 01:12:57;;;;;;;;;;;;;;;-0.23;100.00;103247.00;10486509;28;19920;-76
2023/01/23 01:17:58;;;;;;;;;;;;;;;-0.30;100.00;103232.44;10506072;28;19920;-75
2023/01/23 01:22:59;;;;;;;;;;;;;;;-0.44;100.00;103251.22;10495460;28;20269;-76
2023/01/23 01:27:59;;;;;;;;;;;;;;;-0.42;100.00;103254.00;10484769;28;20015;-76
2023/01/23 01:33:00;;;;;;;;;;;;;;;-0.27;100.00;103256.00;10471334;28;19977;-75
2023/01/23 01:38:00;;;;;;;;;;;;;;;-0.19;100.00;103252.78;10521944;28;19916;-76
2023/01/23 01:43:01;;;;;;;;;;;;;;;-0.19;100.00;103250.19;10499301;28;19924;-76
2023/01/23 01:48:02;;;;;;;;;;;;;;;-0.19;100.00;103252.78;10452080;28;20861;-75
2023/01/23 01:53:02;;;;;;;;;;;;;;;-0.18;100.00;103249.47;10493496;28;19948;-76
2023/01/23 01:58:02;;;;;;;;;;;;;;;-0.13;100.00;103254.28;10485951;28;19931;-75
2023/01/23 02:03:03;;;;;;;;;;;;;;;-0.15;100.00;103236.06;10500254;28;19928;-76
2023/01/23 02:08:03;;;;;;;;;;;;;;;-0.18;100.00;103238.25;10470504;28;19924;-76
2023/01/23 02:13:25;;;;;;;;;;;;;;;-0.19;100.00;103234.75;10493744;28;20452;-76
2023/01/23 02:18:26;;;;;;;;;;;;;;;-0.25;100.00;103238.16;10487173;28;19946;-76
2023/01/23 02:23:31;;;;;;;;;;;;;;;-0.21;100.00;103236.22;10478820;28;19942;-76
2023/01/23 02:28:35;;;;;;;;;;;;;;;-0.22;100.00;103233.41;10509016;28;20406;-75
2023/01/23 02:33:35;;;;;;;;;;;;;;;-0.20;100.00;103234.53;10509251;28;20376;-75
2023/01/23 02:38:36;;;;;;;;;;;;;;;-0.15;100.00;103248.94;10517737;28;19921;-75
2023/01/23 02:43:37;;;;;;;;;;;;;;;-0.12;100.00;103243.28;10467835;28;20352;-75
2023/01/23 02:48:38;;;;;;;;;;;;;;;-0.18;100.00;103236.59;10460111;28;19916;-75
2023/01/23 02:53:41;;;;;;;;;;;;;;;-0.16;100.00;103236.78;10508990;28;19920;-76
2023/01/23 03:04:05;;;;;;;;;;;;;;;-0.16;100.00;103236.78;10510037;28;19929;-75
2023/01/23 03:09:09;;;;;;;;;;;;;;;-0.16;100.00;103240.31;10466565;28;19927;-75
2023/01/23 03:14:13;;;;;;;;;;;;;;;-0.13;100.00;103241.41;10449586;28;19924;-74
2023/01/23 03:19:14;;;;;;;;;;;;;;;-0.12;100.00;103241.59;10463305;28;20368;-75
2023/01/23 03:24:14;;;;;;;;;;;;;;;-0.14;100.00;103245.63;10481883;28;19921;-75
2023/01/23 03:34:34;;;;;;;;;;;;;;;-0.08;100.00;103246.41;10518556;28;19956;-75
2023/01/23 03:44:53;;;;;;;;;;;;;;;-0.26;100.00;103238.91;10511209;28;19916;-75
2023/01/23 03:49:54;;;;;;;;;;;;;;;-0.34;100.00;103245.63;10523822;28;20384;-75
2023/01/23 03:54:54;;;;;;;;;;;;;;;-0.22;100.00;103241.13;10523222;28;19942;-75
2023/01/23 03:59:54;;;;;;;;;;;;;;;-0.30;100.00;103235.03;10492336;28;19943;-76
2023/01/23 04:04:55;;;;;;;;;;;;;;;-0.40;100.00;103237.13;10507551;28;19924;-75
2023/01/23 04:09:55;;;;;;;;;;;;;;;-0.56;100.00;103244.47;10508513;28;19920;-75
2023/01/23 04:14:56;;;;;;;;;;;;;;;-0.73;100.00;103247.44;10520631;28;19927;-75
2023/01/23 04:19:56;;;;;;;;;;;;;;;-0.83;100.00;103250.41;10522681;28;20348;-76
2023/01/23 04:24:56;;;;;;;;;;;;;;;-0.83;100.00;103250.41;10503157;28;19967;-76
2023/01/23 04:29:57;;;;;;;;;;;;;;;-0.65;100.00;103254.50;10524400;28;19981;-76
2023/01/23 04:34:57;;;;;;;;;;;;;;;-0.58;100.00;103254.59;10510251;28;20295;-75
2023/01/23 04:39:57;;;;;;;;;;;;;;;-0.43;100.00;103258.22;10522889;28;19924;-76
2023/01/23 04:44:58;;;;;;;;;;;;;;;-0.41;100.00;103271.31;10467915;28;20008;-75
2023/01/23 04:49:58;;;;;;;;;;;;;;;-0.37;100.00;103273.56;10481156;28;19966;-76
2023/01/23 04:54:58;;;;;;;;;;;;;;;-0.26;100.00;103285.22;10497932;28;19928;-75
2023/01/23 04:59:59;;;;;;;;;;;;;;;-0.25;100.00;103281.94;10503804;28;19947;-76
2023/01/23 05:04:59;;;;;;;;;;;;;;;-0.11;100.00;103282.06;10464308;28;19916;-76
2023/01/23 05:09:59;;;;;;;;;;;;;;;-0.13;100.00;103280.03;10505391;28;19916;-76
2023/01/23 05:15:00;;;;;;;;;;;;;;;-0.07;100.00;103288.56;10521730;28;19963;-75
2023/01/23 05:20:00;;;;;;;;;;;;;;;-0.22;100.00;103287.47;10470903;28;19925;-75
2023/01/23 05:25:00;;;;;;;;;;;;;;;-0.42;100.00;103283.22;10499199;28;19926;-75
2023/01/23 05:30:01;;;;;;;;;;;;;;;-0.58;100.00;103281.94;10489689;28;19970;-76
2023/01/23 05:35:01;;;;;;;;;;;;;;;-0.63;100.00;103287.41;10527985;28;19919;-76
2023/01/23 05:40:02;;;;;;;;;;;;;;;-0.64;100.00;103282.06;10478171;28;19920;-76
2023/01/23 05:45:02;;;;;;;;;;;;;;;-0.79;100.00;103279.34;10513514;28;19916;-75
2023/01/23 05:50:03;;;;;;;;;;;;;;;-0.94;100.00;103287.59;10489523;28;20008;-75
2023/01/23 05:55:03;;;;;;;;;;;;;;;-0.95;100.00;103288.31;10483352;28;19920;-75
2023/01/23 06:00:04;;;;;;;;;;;;;;;-0.67;100.00;103289.38;10488884;28;20010;-75
2023/01/23 06:05:05;;;;;;;;;;;;;;;-0.52;100.00;103299.13;10469992;28;19916;-76
2023/01/23 06:10:06;;;;;;;;;;;;;;;-0.43;100.00;103296.81;10527550;28;20010;-76
2023/01/23 06:15:08;;;;;;;;;;;;;;;-0.62;100.00;103304.69;10524880;28;19931;-75
2023/01/23 06:20:09;;;;;;;;;;;;;;;-0.71;100.00;103300.00;10484837;28;20352;-76
2023/01/23 06:25:10;;;;;;;;;;;;;;;-0.81;100.00;103311.63;10490024;28;20485;-76
2023/01/23 06:30:10;;;;;;;;;;;;;;;-0.46;100.00;103315.38;10520568;28;20058;-77
2023/01/23 06:35:11;;;;;;;;;;;;;;;-0.26;100.00;103332.50;10498061;28;19928;-77
2023/01/23 06:40:14;;;;;;;;;;;;;;;-0.18;100.00;103333.47;10492441;28;20003;-77
2023/01/23 06:45:14;;;;;;;;;;;;;;;-0.13;100.00;103314.41;10502675;28;20356;-76
2023/01/23 06:50:15;;;;;;;;;;;;;;;-0.14;100.00;103328.00;10487284;28;19928;-75
2023/01/23 06:55:15;;;;;;;;;;;;;;;-0.13;100.00;103339.25;10518784;28;19935;-76
2023/01/23 07:00:16;;;;;;;;;;;;;;;-0.14;100.00;103353.75;10500999;28;19920;-76
2023/01/23 07:05:16;;;;;;;;;;;;;;;-0.18;100.00;103349.88;10502101;28;19920;-75
2023/01/23 07:10:17;;;;;;;;;;;;;;;-0.17;100.00;103356.88;10516699;28;20069;-75
2023/01/23 07:15:17;;;;;;;;;;;;;;;-0.37;100.00;103367.09;10523871;28;19928;-75
2023/01/23 07:20:18;;;;;;;;;;;;;;;-0.43;100.00;103362.81;10516455;28;19921;-76
2023/01/23 07:25:18;;;;;;;;;;;;;;;-0.43;100.00;103376.59;10489205;28;19920;-75
2023/01/23 07:30:18;;;;;;;;;;;;;;;-0.16;100.00;103373.22;10516382;28;19924;-74
2023/01/23 07:35:19;;;;;;;;;;;;;;;-0.06;100.00;103381.44;10499412;28;19969;-75
2023/01/23 07:40:20;;;;;;;;;;;;;;;-0.19;100.00;103375.41;10504026;28;19916;-75
2023/01/23 07:45:20;;;;;;;;;;;;;;;-0.32;100.00;103378.94;10492501;28;19946;-75
2023/01/23 07:50:21;;;;;;;;;;;;;;;-0.34;100.00;103382.94;10481050;28;20353;-75
2023/01/23 07:55:21;;;;;;;;;;;;;;;-0.40;100.00;103389.84;10484036;28;20410;-74
2023/01/23 08:00:22;;;;;;;;;;;;;;;-0.38;100.00;103385.84;10495425;28;19924;-74
2023/01/23 08:05:22;;;;;;;;;;;;;;;-0.03;100.00;103397.28;10464264;28;20007;-75
2023/01/23 08:10:22;;;;;;;;;;;;;;;0.13;100.00;103397.66;10493247;28;19947;-74
2023/01/23 08:15:23;;;;;;;;;;;;;;;0.27;100.00;103399.44;10481797;28;19993;-73
2023/01/23 08:20:23;;;;;;;;;;;;;;;0.32;100.00;103391.38;10517865;28;19927;-75
2023/01/23 08:25:23;;;;;;;;;;;;;;;0.39;100.00;103394.00;10482082;28;19928;-74
2023/01/23 08:30:23;;;;;;;;;;;;;;;0.39;100.00;103389.81;10479656;28;20252;-75
2023/01/23 08:35:24;;;;;;;;;;;;;;;0.31;100.00;103395.63;10504166;28;20066;-76
2023/01/23 08:40:24;;;;;;;;;;;;;;;0.31;100.00;103397.25;10501242;28;19927;-75
2023/01/23 08:45:25;;;;;;;;;;;;;;;0.39;100.00;103404.31;10463185;28;19916;-74
2023/01/23 08:50:25;;;;;;;;;;;;;;;0.37;100.00;103403.19;10482934;28;19920;-75
2023/01/23 08:55:27;;;;;;;;;;;;;;;0.39;100.00;103404.31;10495867;28;19927;-74
2023/01/23 09:00:28;;;;;;;;;;;;;;;0.52;100.00;103410.34;10503997;28;19947;-74
2023/01/23 09:05:28;;;;;;;;;;;;;;;0.56;100.00;103415.16;10499693;28;20030;-78
2023/01/23 09:10:28;;;;;;;;;;;;;;;0.63;100.00;103411.72;10494747;28;20010;-74
2023/01/23 09:15:29;;;;;;;;;;;;;;;0.79;100.00;103411.13;10516021;28;19921;-75
2023/01/23 09:20:29;;;;;;;;;;;;;;;0.92;100.00;103419.69;10502016;28;19924;-75
2023/01/23 09:25:30;;;;;;;;;;;;;;;1.01;100.00;103418.28;10499185;28;20019;-75
2023/01/23 09:30:34;;;;;;;;;;;;;;;1.06;100.00;103417.94;10489815;28;19920;-75
2023/01/23 09:35:34;;;;;;;;;;;;;;;1.15;100.00;103422.59;10518665;28;19947;-74
2023/01/23 09:40:48;;;;;;;;;;;;;;;0.99;100.00;103432.66;10483353;28;19951;-76
2023/01/23 09:46:06;;;;;;;;;;;;;;;0.96;100.00;103440.00;10496817;28;19973;-75
2023/01/23 09:51:27;;;;;;;;;;;;;;;0.91;100.00;103442.69;10483810;28;20011;-76
2023/01/23 09:56:28;;;;;;;;;;;;;;;0.92;100.00;103440.34;10499452;28;19924;-76
2023/01/23 10:01:29;;;;;;;;;;;;;;;0.90;100.00;103439.22;10496228;28;20474;-75
2023/01/23 10:06:30;;;;;;;;;;;;;;;0.96;100.00;103429.69;10488457;28;19920;-75
2023/01/23 10:11:37;;;;;;;;;;;;;;;1.08;100.00;103438.03;10470889;28;19920;-74
2023/01/23 10:16:37;;;;;;;;;;;;;;;1.13;100.00;103431.81;10503962;28;19939;-75
2023/01/23 10:21:50;;;;;;;;;;;;;;;1.25;100.00;103436.69;10498490;28;19931;-74
2023/01/23 10:26:51;;;;;;;;;;;;;;;1.33;100.00;103430.81;10506617;28;19923;-76
2023/01/23 10:31:53;;;;;;;;;;;;;;;1.41;100.00;103422.41;10506989;28;19931;-74
2023/01/23 10:37:02;;;;;;;;;;;;;;;1.54;100.00;103414.56;10490292;28;20375;-74
2023/01/23 10:42:04;;;;;;;;;;;;;;;1.65;100.00;103421.03;10484819;28;19927;-74
2023/01/23 10:47:11;;;;;;;;;;;;;;;1.71;100.00;103411.47;10465099;28;19927;-74
2023/01/23 10:52:29;;;;;;;;;;;;;;;1.80;100.00;103414.28;10507052;28;19973;-74
2023/01/23 10:57:30;;;;;;;;;;;;;;;1.88;100.00;103407.47;10523532;28;19920;-75
2023/01/23 11:02:31;;;;;;;;;;;;;;;1.94;100.00;103410.81;10496404;28;20011;-74
2023/01/23 11:07:31;;;;;;;;;;;;;;;1.89;100.00;103411.91;10479635;28;20433;-75
2023/01/23 11:12:33;;;;;;;;;;;;;;;1.93;100.00;103418.38;10508338;28;19945;-75
2023/01/23 11:17:33;;;;;;;;;;;;;;;1.89;100.00;103422.25;10507837;28;20014;-74
2023/01/23 11:22:37;;;;;;;;;;;;;;;1.94;100.00;103421.16;10507989;28;19916;-75
2023/01/23 11:27:37;;;;;;;;;;;;;;;1.96;100.00;103414.50;10508150;28;19923;-75
2023/01/23 11:32:52;;;;;;;;;;;;;;;1.82;100.00;103414.47;10490511;28;20359;-76
2023/01/23 11:37:53;;;;;;;;;;;;;;;1.74;100.00;103414.44;10490633;28;19954;-76
2023/01/23 11:42:54;;;;;;;;;;;;;;;1.74;100.00;103410.94;10506483;28;19977;-76
2023/01/23 11:47:58;;;;;;;;;;;;;;;1.67;100.00;103411.81;10524717;28;20334;-76
2023/01/23 11:53:01;;;;;;;;;;;;;;;1.70;100.00;103413.88;10489483;28;20003;-75
2023/01/23 11:58:14;;;;;;;;;;;;;;;1.59;100.00;103409.94;10525711;28;19916;-76
2023/01/23 12:03:17;;;;;;;;;;;;;;;1.55;100.00;103412.88;10524370;28;19965;-76
2023/01/23 12:08:24;;;;;;;;;;;;;;;1.62;100.00;103418.06;10522554;28;19969;-76
2023/01/23 12:13:27;;;;;;;;;;;;;;;1.46;100.00;103412.66;10525003;28;19920;-76
2023/01/23 12:18:33;;;;;;;;;;;;;;;1.40;100.00;103417.06;10523975;28;19926;-75
2023/01/23 12:23:49;;;;;;;;;;;;;;;1.30;100.00;103415.91;10523666;28;19924;-75
2023/01/23 12:29:04;;;;;;;;;;;;;;;1.43;100.00;103412.28;10505314;28;19923;-75
2023/01/23 12:34:05;;;;;;;;;;;;;;;1.49;100.00;103417.28;10506495;28;20318;-75
2023/01/23 12:39:17;;;;;;;;;;;;;;;1.58;100.00;103410.69;10522189;28;19974;-76
2023/01/23 12:44:25;;;;;;;;;;;;;;;1.49;100.00;103402.72;10523034;28;19922;-76
2023/01/23 12:49:27;;;;;;;;;;;;;;;1.39;100.00;103395.47;10504729;28;19920;-75
2023/01/23 12:54:39;;;;;;;;;;;;;;;1.48;100.00;103390.56;10523388;28;19961;-76
2023/01/23 13:00:06;;;;;;;;;;;;;;;1.52;100.00;103385.03;10488258;28;19920;-75
2023/01/23 13:05:32;;;;;;;;;;;;;;;1.57;100.00;103391.69;10517918;28;19916;-76
2023/01/23 13:16:12;;;;;;;;;;;;;;;1.82;100.00;103392.16;10523672;28;19955;-76
2023/01/23 13:26:32;;;;;;;;;;;;;;;1.74;100.00;103392.88;10507732;28;20006;-75
2023/01/23 13:31:39;;;;;;;;;;;;;;;1.86;100.00;103375.38;10503975;28;20325;-76
2023/01/23 13:36:40;;;;;;;;;;;;;;;1.84;100.00;103382.94;10506456;28;19927;-75
2023/01/23 13:41:40;;;;;;;;;;;;;;;1.85;100.00;103389.97;10512597;28;19916;-76
2023/01/23 13:47:01;;;;;;;;;;;;;;;1.85;100.00;103394.19;10511246;28;19916;-75
2023/01/23 13:56:37;;;;;;;;;;;;;;;1.75;100.00;103402.47;10512260;28;19920;-76
2023/01/23 13:57:22;;;;;;;;;;;;;;;1.72;100.00;103402.09;10529705;28;19923;-76
2023/01/23 14:07:54;;;;;;;;;;;;;;;1.89;100.00;103407.69;10512772;28;20268;-75
2023/01/23 14:13:11;;;;;;;;;;;;;;;1.83;100.00;103411.16;10471632;28;19924;-76
2023/01/23 14:18:13;;;;;;;;;;;;;;;1.72;100.00;103415.00;10487701;28;19920;-76
2023/01/23 14:23:22;;;;;;;;;;;;;;;1.78;100.00;103422.56;10485977;28;20411;-76
2023/01/23 14:28:22;;;;;;;;;;;;;;;1.74;100.00;103416.09;10486481;28;19917;-76
2023/01/23 14:33:23;;;;;;;;;;;;;;;1.72;100.00;103407.25;10487932;28;19966;-75
2023/01/23 14:38:32;;;;;;;;;;;;;;;1.80;100.00;103415.94;10485176;28;19922;-76
2023/01/23 14:43:33;;;;;;;;;;;;;;;1.74;100.00;103421.28;10485590;28;19947;-76
2023/01/23 14:48:35;;;;;;;;;;;;;;;1.78;100.00;103419.97;10484629;28;20003;-75
2023/01/23 14:53:38;;;;;;;;;;;;;;;1.68;100.00;103420.50;10485727;28;19928;-76
2023/01/23 14:58:38;;;;;;;;;;;;;;;1.57;100.00;103422.69;10484603;28;19959;-76
2023/01/23 15:03:39;;;;;;;;;;;;;;;1.33;100.00;103420.50;10485423;28;19959;-75
2023/01/23 15:08:40;;;;;;;;;;;;;;;1.17;100.00;103421.16;10485381;28;19924;-76
2023/01/23 15:13:41;;;;;;;;;;;;;;;1.11;100.00;103430.69;10516603;28;19927;-76
2023/01/23 15:18:48;;;;;;;;;;;;;;;1.08;100.00;103426.81;10508381;28;19920;-75
2023/01/23 15:24:04;;;;;;;;;;;;;;;0.96;100.00;103424.53;10507680;28;19916;-76
2023/01/23 15:29:07;;;;;;;;;;;;;;;0.84;100.00;103418.69;10525849;28;20382;-76
2023/01/23 15:34:10;;;;;;;;;;;;;;;0.80;100.00;103407.81;10523754;28;19924;-76
2023/01/23 15:39:31;;;;;;;;;;;;;;;0.75;100.00;103398.56;10490650;28;19924;-75
2023/01/23 15:44:31;;;;;;;;;;;;;;;0.83;100.00;103393.66;10484988;28;20684;-76
2023/01/23 15:49:32;;;;;;;;;;;;;;;0.76;100.00;103387.53;10483196;28;19912;-76
2023/01/23 15:54:34;;;;;;;;;;;;;;;0.73;100.00;103382.88;10465428;28;19920;-74
2023/01/23 15:59:35;;;;;;;;;;;;;;;0.79;100.00;103375.94;10447364;28;19916;-74
2023/01/23 16:04:35;;;;;;;;;;;;;;;0.83;100.00;103380.75;10504062;28;19920;-75
2023/01/23 16:09:36;;;;;;;;;;;;;;;0.85;100.00;103386.13;10505701;28;19916;-76
2023/01/23 16:14:36;;;;;;;;;;;;;;;0.83;100.00;103398.81;10497195;28;20260;-75
2023/01/23 16:19:36;;;;;;;;;;;;;;;0.70;100.00;103396.31;10512715;28;19946;-75
2023/01/23 16:24:37;;;;;;;;;;;;;;;0.78;100.00;103397.28;10488953;28;19916;-75
2023/01/23 16:29:37;;;;;;;;;;;;;;;0.77;100.00;103404.84;10486190;28;19927;-76
2023/01/23 16:34:38;;;;;;;;;;;;;;;0.76;100.00;103418.47;10501539;28;19927;-75
2023/01/23 16:39:38;;;;;;;;;;;;;;;0.80;100.00;103415.56;10501280;28;20292;-75
2023/01/23 16:44:38;;;;;;;;;;;;;;;0.77;100.00;103417.75;10480665;28;20311;-76
2023/01/23 16:49:39;;;;;;;;;;;;;;;0.69;100.00;103429.63;10463085;28;19927;-75
2023/01/23 16:54:39;;;;;;;;;;;;;;;0.65;100.00;103428.31;10504743;28;19957;-75
2023/01/23 16:59:40;;;;;;;;;;;;;;;0.65;100.00;103425.75;10494205;28;19979;-75
2023/01/23 17:04:40;;;;;;;;;;;;;;;0.60;100.00;103425.88;10480827;28;20007;-76
2023/01/23 17:09:40;;;;;;;;;;;;;;;0.69;100.00;103427.03;10479125;28;19928;-76
2023/01/23 17:14:41;;;;;;;;;;;;;;;0.75;100.00;103422.69;10475801;28;20756;-76
2023/01/23 17:19:41;;;;;;;;;;;;;;;0.79;100.00;103422.34;10474935;28;20421;-76
2023/01/23 17:24:42;;;;;;;;;;;;;;;0.80;100.00;103421.63;10488071;28;19924;-75
2023/01/23 17:29:42;;;;;;;;;;;;;;;0.89;100.00;103419.31;10497732;28;19935;-75
2023/01/23 17:34:42;;;;;;;;;;;;;;;0.87;100.00;103425.91;10500853;28;19943;-74
2023/01/23 17:39:42;;;;;;;;;;;;;;;0.91;100.00;103424.66;10489805;28;19924;-75
2023/01/23 17:44:43;;;;;;;;;;;;;;;0.96;100.00;103419.38;10521448;28;20321;-76
2023/01/23 17:49:45;;;;;;;;;;;;;;;0.97;100.00;103413.47;10485485;28;19920;-75
2023/01/23 17:54:46;;;;;;;;;;;;;;;0.97;100.00;103415.13;10469528;28;20018;-75
2023/01/23 17:59:46;;;;;;;;;;;;;;;0.87;100.00;103418.19;10488976;28;20310;-75
2023/01/23 18:04:47;;;;;;;;;;;;;;;0.92;100.00;103426.50;10493509;28;19928;-75
2023/01/23 18:09:47;;;;;;;;;;;;;;;0.94;100.00;103425.97;10506274;28;19924;-75
2023/01/23 18:14:49;;;;;;;;;;;;;;;1.09;100.00;103423.50;10523371;28;19932;-74
2023/01/23 18:19:52;;;;;;;;;;;;;;;1.00;100.00;103438.72;10486299;28;19970;-75
2023/01/23 18:24:53;;;;;;;;;;;;;;;0.99;100.00;103448.13;10485598;28;19917;-74
2023/01/23 18:30:02;;;;;;;;;;;;;;;0.88;100.00;103450.97;10485314;28;19943;-74
2023/01/23 18:35:06;;;;;;;;;;;;;;;0.74;100.00;103464.66;10509201;28;20364;-74
2023/01/23 18:40:09;;;;;;;;;;;;;;;0.64;100.00;103459.97;10475749;28;19925;-75
2023/01/23 18:45:10;;;;;;;;;;;;;;;0.58;100.00;103462.66;10486309;28;20341;-75
2023/01/23 18:50:14;;;;;;;;;;;;;;;0.59;100.00;103458.47;10453641;28;19948;-75
2023/01/23 18:55:38;;;;;;;;;;;;;;;0.59;100.00;103458.47;10472569;28;19943;-74
2023/01/23 19:00:40;;;;;;;;;;;;;;;0.54;100.00;103468.16;10477863;28;20011;-74
2023/01/23 19:05:40;;;;;;;;;;;;;;;0.49;100.00;103474.38;10466377;28;19928;-74
2023/01/23 19:10:41;;;;;;;;;;;;;;;0.42;100.00;103482.03;10483344;28;20388;-74
2023/01/23 19:15:42;;;;;;;;;;;;;;;0.42;100.00;103475.22;10497836;28;19924;-74
2023/01/23 19:20:47;;;;;;;;;;;;;;;0.48;100.00;103469.94;10521893;28;20386;-75
2023/01/23 19:25:48;;;;;;;;;;;;;;;0.45;100.00;103466.06;10494483;28;19931;-74
2023/01/23 19:30:48;;;;;;;;;;;;;;;0.52;100.00;103477.34;10496097;28;20371;-75
2023/01/23 19:35:50;;;;;;;;;;;;;;;0.62;100.00;103473.38;10467316;28;19920;-74
2023/01/23 19:40:50;;;;;;;;;;;;;;;0.60;100.00;103488.66;10478374;28;19920;-75
2023/01/23 19:45:50;;;;;;;;;;;;;;;0.53;100.00;103493.75;10505127;28;19921;-75
2023/01/23 19:50:51;;;;;;;;;;;;;;;0.56;100.00;103486.41;10482085;28;20269;-74
2023/01/23 19:55:52;;;;;;;;;;;;;;;0.49;100.00;103488.91;10483230;28;19927;-74
2023/01/23 20:00:52;;;;;;;;;;;;;;;0.74;100.00;103490.44;10483427;28;19920;-74
2023/01/23 20:05:54;;;;;;;;;;;;;;;0.73;100.00;103489.53;10481829;28;19923;-74
2023/01/23 20:10:54;;;;;;;;;;;;;;;0.70;100.00;103495.94;10494554;28;20291;-74
2023/01/23 20:15:55;;;;;;;;;;;;;;;0.65;100.00;103496.97;10488609;28;19935;-73
2023/01/23 20:20:58;;;;;;;;;;;;;;;0.58;100.00;103506.50;10504724;28;19985;-74
2023/01/23 20:25:59;;;;;;;;;;;;;;;0.55;100.00;103503.50;10503241;28;19920;-74
2023/01/23 20:31:03;;;;;;;;;;;;;;;0.65;100.00;103507.28;10503651;28;19920;-75
2023/01/23 20:36:04;;;;;;;;;;;;;;;0.66;100.00;103504.00;10514305;28;19931;-75
2023/01/23 20:41:08;;;;;;;;;;;;;;;0.74;100.00;103498.19;10498540;28;19970;-75
2023/01/23 20:46:09;;;;;;;;;;;;;;;0.85;100.00;103500.50;10519115;28;19924;-74
2023/01/23 20:51:09;;;;;;;;;;;;;;;0.78;100.00;103490.09;10487907;28;20382;-74
2023/01/23 20:56:13;;;;;;;;;;;;;;;0.77;100.00;103490.84;10518284;28;20007;-74
2023/01/23 21:01:14;;;;;;;;;;;;;;;0.86;100.00;103494.59;10510678;28;19920;-74
2023/01/23 21:06:14;;;;;;;;;;;;;;;0.83;100.00;103498.47;10507961;28;19928;-74
2023/01/23 21:11:15;;;;;;;;;;;;;;;0.91;100.00;103499.44;10512112;28;19920;-74
2023/01/23 21:16:16;;;;;;;;;;;;;;;0.87;100.00;103504.19;10509062;28;21275;-75
2023/01/23 21:21:17;;;;;;;;;;;;;;;0.88;100.00;103506.03;10486782;28;19920;-74
2023/01/23 21:26:18;;;;;;;;;;;;;;;0.97;100.00;103500.22;10490633;28;19999;-74
2023/01/23 21:31:20;;;;;;;;;;;;;;;1.04;100.00;103497.69;10475481;28;20082;-74
2023/01/23 21:36:21;;;;;;;;;;;;;;;0.97;100.00;103503.75;10496611;28;19920;-75
2023/01/23 21:41:22;;;;;;;;;;;;;;;0.88;100.00;103494.81;10493961;28;19939;-75
2023/01/23 21:46:22;;;;;;;;;;;;;;;0.91;100.00;103491.69;10494041;28;19935;-74
2023/01/23 21:51:24;;;;;;;;;;;;;;;0.92;100.00;103486.75;10512192;28;19968;-75
2023/01/23 21:56:24;;;;;;;;;;;;;;;0.93;100.00;103488.59;10470450;28;19965;-74
2023/01/23 22:01:30;;;;;;;;;;;;;;;0.83;100.00;103489.06;10499149;28;19969;-77
2023/01/23 22:06:31;;;;;;;;;;;;;;;0.84;100.00;103500.31;10512674;28;19963;-75
2023/01/23 22:11:32;;;;;;;;;;;;;;;0.86;100.00;103494.59;10504090;28;20011;-74
2023/01/23 22:16:32;;;;;;;;;;;;;;;0.78;100.00;103490.09;10485806;28;19927;-74
2023/01/23 22:21:33;;;;;;;;;;;;;;;0.81;100.00;103493.09;10527457;28;20366;-74
2023/01/23 22:26:33;;;;;;;;;;;;;;;0.76;100.00;103490.66;10525166;28;19920;-74
2023/01/23 22:31:33;;;;;;;;;;;;;;;0.76;100.00;103495.81;10486931;28;19958;-75
2023/01/23 22:36:34;;;;;;;;;;;;;;;0.85;100.00;103497.00;10470843;28;19924;-74
2023/01/23 22:41:34;;;;;;;;;;;;;;;0.81;100.00;103500.81;10513991;28;20353;-74
2023/01/23 22:46:34;;;;;;;;;;;;;;;0.77;100.00;103505.41;10503328;28;20327;-73
2023/01/23 22:51:35;;;;;;;;;;;;;;;0.84;100.00;103492.56;10491368;28;20364;-74
2023/01/23 22:56:35;;;;;;;;;;;;;;;0.96;100.00;103500.94;10507668;28;19916;-75
2023/01/23 23:01:36;;;;;;;;;;;;;;;0.83;100.00;103506.19;10525825;28;19920;-74
2023/01/23 23:06:36;;;;;;;;;;;;;;;0.73;100.00;103499.84;10509487;28;19923;-74
2023/01/23 23:11:37;;;;;;;;;;;;;;;0.76;100.00;103488.06;10498642;28;20036;-74
2023/01/23 23:16:37;;;;;;;;;;;;;;;0.75;100.00;103492.28;10509702;28;19931;-75
2023/01/23 23:21:38;;;;;;;;;;;;;;;0.78;100.00;103495.25;10500274;28;20399;-74
2023/01/23 23:26:38;;;;;;;;;;;;;;;0.94;100.00;103486.94;10505068;28;19969;-75
2023/01/23 23:31:38;;;;;;;;;;;;;;;0.91;100.00;103497.78;10523858;28;19916;-74
2023/01/23 23:36:39;;;;;;;;;;;;;;;0.94;100.00;103494.66;10524795;28;19928;-74
2023/01/23 23:41:39;;;;;;;;;;;;;;;0.99;100.00;103502.28;10524120;28;20256;-74
2023/01/23 23:46:39;;;;;;;;;;;;;;;0.92;100.00;103506.44;10524039;28;20364;-73
2023/01/23 23:51:40;;;;;;;;;;;;;;;0.90;100.00;103502.72;10502260;28;19919;-74
2023/01/23 23:56:40;;;;;;;;;;;;;;;0.87;100.00;103499.03;10484623;28;20438;-74
